sensor_id;sensor_type;location;lat;lon;timestamp;P1;durP1;ratioP1;P2;durP2;ratioP2
16139;SDS011;8175;49.326;12.690;2023-02-28T00:01:06;5.20;;;4.07;;
16139;SDS011;8175;49.326;12.690;2023-02-28T00:03:32;6.73;;;4.30;;
16139;SDS011;8175;49.326;12.690;2023-02-28T00:06:00;6.33;;;4.80;;
16139;SDS011;8175;49.326;12.690;2023-02-28T00:08:27;4.93;;;4.37;;
16139;SDS011;8175;49.326;12.690;2023-02-28T00:10:53;7.50;;;4.30;;
16139;SDS011;8175;49.326;12.690;2023-02-28T00:13:19;7.67;;;5.43;;
16139;SDS011;8175;49.326;12.690;2023-02-28T00:15:44;6.30;;;4.87;;
16139;SDS011;8175;49.326;12.690;2023-02-28T00:18:10;6.27;;;3.70;;
16139;SDS011;8175;49.326;12.690;2023-02-28T00:20:36;6.83;;;5.03;;
16139;SDS011;8175;49.326;12.690;2023-02-28T00:23:02;6.53;;;4.73;;
16139;SDS011;8175;49.326;12.690;2023-02-28T00:25:28;6.70;;;5.57;;
16139;SDS011;8175;49.326;12.690;2023-02-28T00:27:53;7.47;;;5.77;;
16139;SDS011;8175;49.326;12.690;2023-02-28T00:30:20;6.00;;;4.73;;
16139;SDS011;8175;49.326;12.690;2023-02-28T00:32:47;7.93;;;5.77;;
16139;SDS011;8175;49.326;12.690;2023-02-28T00:35:14;8.43;;;5.00;;
16139;SDS011;8175;49.326;12.690;2023-02-28T00:37:39;11.77;;;5.90;;
16139;SDS011;8175;49.326;12.690;2023-02-28T00:40:06;8.23;;;5.10;;
16139;SDS011;8175;49.326;12.690;2023-02-28T00:42:33;7.17;;;5.20;;
16139;SDS011;8175;49.326;12.690;2023-02-28T00:44:59;7.13;;;5.57;;
16139;SDS011;8175;49.326;12.690;2023-02-28T00:47:25;7.40;;;5.07;;
16139;SDS011;8175;49.326;12.690;2023-02-28T00:49:51;9.67;;;5.83;;
16139;SDS011;8175;49.326;12.690;2023-02-28T00:52:17;8.47;;;6.10;;
16139;SDS011;8175;49.326;12.690;2023-02-28T00:54:42;6.07;;;5.43;;
16139;SDS011;8175;49.326;12.690;2023-02-28T00:57:08;7.93;;;6.07;;
16139;SDS011;8175;49.326;12.690;2023-02-28T00:59:34;6.53;;;5.40;;
16139;SDS011;8175;49.326;12.690;2023-02-28T01:02:00;7.93;;;5.57;;
16139;SDS011;8175;49.326;12.690;2023-02-28T01:04:25;6.83;;;5.40;;
16139;SDS011;8175;49.326;12.690;2023-02-28T01:06:51;7.10;;;5.13;;
16139;SDS011;8175;49.326;12.690;2023-02-28T01:09:17;5.90;;;5.23;;
16139;SDS011;8175;49.326;12.690;2023-02-28T01:11:42;7.60;;;5.80;;
16139;SDS011;8175;49.326;12.690;2023-02-28T01:14:11;6.27;;;5.67;;
16139;SDS011;8175;49.326;12.690;2023-02-28T01:16:38;8.13;;;5.83;;
16139;SDS011;8175;49.326;12.690;2023-02-28T01:19:04;6.90;;;6.03;;
16139;SDS011;8175;49.326;12.690;2023-02-28T01:21:29;6.47;;;5.37;;
16139;SDS011;8175;49.326;12.690;2023-02-28T01:23:56;7.87;;;6.17;;
16139;SDS011;8175;49.326;12.690;2023-02-28T01:26:22;8.63;;;5.80;;
16139;SDS011;8175;49.326;12.690;2023-02-28T01:28:49;8.50;;;6.67;;
16139;SDS011;8175;49.326;12.690;2023-02-28T01:31:16;7.60;;;5.37;;
16139;SDS011;8175;49.326;12.690;2023-02-28T01:33:43;7.90;;;6.40;;
16139;SDS011;8175;49.326;12.690;2023-02-28T01:36:11;8.00;;;6.00;;
16139;SDS011;8175;49.326;12.690;2023-02-28T01:38:44;9.00;;;6.70;;
16139;SDS011;8175;49.326;12.690;2023-02-28T01:41:15;8.57;;;5.40;;
16139;SDS011;8175;49.326;12.690;2023-02-28T01:46:10;9.43;;;7.03;;
16139;SDS011;8175;49.326;12.690;2023-02-28T01:48:38;8.73;;;6.70;;
16139;SDS011;8175;49.326;12.690;2023-02-28T01:51:11;7.13;;;6.23;;
16139;SDS011;8175;49.326;12.690;2023-02-28T01:53:44;9.30;;;7.20;;
16139;SDS011;8175;49.326;12.690;2023-02-28T01:56:15;9.13;;;6.43;;
16139;SDS011;8175;49.326;12.690;2023-02-28T01:58:46;8.03;;;6.10;;
16139;SDS011;8175;49.326;12.690;2023-02-28T02:01:13;9.70;;;6.43;;
16139;SDS011;8175;49.326;12.690;2023-02-28T02:03:56;8.50;;;7.20;;
16139;SDS011;8175;49.326;12.690;2023-02-28T02:06:27;8.73;;;7.30;;
16139;SDS011;8175;49.326;12.690;2023-02-28T02:09:02;7.87;;;6.77;;
16139;SDS011;8175;49.326;12.690;2023-02-28T02:11:28;8.97;;;8.03;;
16139;SDS011;8175;49.326;12.690;2023-02-28T02:20:03;10.50;;;8.20;;
16139;SDS011;8175;49.326;12.690;2023-02-28T02:25:35;12.10;;;8.43;;
16139;SDS011;8175;49.326;12.690;2023-02-28T02:28:27;11.37;;;7.87;;
16139;SDS011;8175;49.326;12.690;2023-02-28T02:31:32;15.27;;;8.20;;
16139;SDS011;8175;49.326;12.690;2023-02-28T02:34:17;9.47;;;8.33;;
16139;SDS011;8175;49.326;12.690;2023-02-28T02:37:25;11.10;;;8.03;;
16139;SDS011;8175;49.326;12.690;2023-02-28T02:40:25;11.80;;;7.83;;
16139;SDS011;8175;49.326;12.690;2023-02-28T02:43:07;11.67;;;8.17;;
16139;SDS011;8175;49.326;12.690;2023-02-28T02:45:38;10.13;;;7.93;;
16139;SDS011;8175;49.326;12.690;2023-02-28T02:48:11;9.83;;;7.00;;
16139;SDS011;8175;49.326;12.690;2023-02-28T02:50:45;11.03;;;6.70;;
16139;SDS011;8175;49.326;12.690;2023-02-28T02:53:15;12.33;;;7.53;;
16139;SDS011;8175;49.326;12.690;2023-02-28T02:55:47;10.63;;;7.67;;
16139;SDS011;8175;49.326;12.690;2023-02-28T02:58:19;12.47;;;8.23;;
16139;SDS011;8175;49.326;12.690;2023-02-28T03:00:52;9.87;;;7.83;;
16139;SDS011;8175;49.326;12.690;2023-02-28T03:03:20;9.77;;;7.83;;
16139;SDS011;8175;49.326;12.690;2023-02-28T03:05:53;11.53;;;7.17;;
16139;SDS011;8175;49.326;12.690;2023-02-28T03:08:20;8.97;;;6.67;;
16139;SDS011;8175;49.326;12.690;2023-02-28T03:10:48;8.77;;;6.87;;
16139;SDS011;8175;49.326;12.690;2023-02-28T03:30:00;7.87;;;6.07;;
16139;SDS011;8175;49.326;12.690;2023-02-28T03:32:33;9.90;;;6.27;;
16139;SDS011;8175;49.326;12.690;2023-02-28T03:37:46;9.63;;;6.97;;
16139;SDS011;8175;49.326;12.690;2023-02-28T03:40:17;11.13;;;7.20;;
16139;SDS011;8175;49.326;12.690;2023-02-28T03:42:47;9.90;;;6.30;;
16139;SDS011;8175;49.326;12.690;2023-02-28T03:45:20;9.43;;;6.90;;
16139;SDS011;8175;49.326;12.690;2023-02-28T03:47:53;9.97;;;6.10;;
16139;SDS011;8175;49.326;12.690;2023-02-28T03:55:52;7.40;;;6.57;;
16139;SDS011;8175;49.326;12.690;2023-02-28T04:01:11;7.87;;;6.00;;
16139;SDS011;8175;49.326;12.690;2023-02-28T04:03:44;8.93;;;6.83;;
16139;SDS011;8175;49.326;12.690;2023-02-28T04:06:15;8.97;;;7.37;;
16139;SDS011;8175;49.326;12.690;2023-02-28T04:08:43;7.43;;;6.10;;
16139;SDS011;8175;49.326;12.690;2023-02-28T04:11:16;9.47;;;6.33;;
16139;SDS011;8175;49.326;12.690;2023-02-28T04:13:43;7.17;;;6.30;;
16139;SDS011;8175;49.326;12.690;2023-02-28T04:16:09;8.37;;;5.60;;
16139;SDS011;8175;49.326;12.690;2023-02-28T04:18:40;6.73;;;5.87;;
16139;SDS011;8175;49.326;12.690;2023-02-28T04:21:08;7.33;;;5.63;;
16139;SDS011;8175;49.326;12.690;2023-02-28T04:23:34;7.17;;;5.27;;
16139;SDS011;8175;49.326;12.690;2023-02-28T04:26:00;8.17;;;5.83;;
16139;SDS011;8175;49.326;12.690;2023-02-28T04:28:25;6.10;;;5.20;;
16139;SDS011;8175;49.326;12.690;2023-02-28T04:30:58;9.33;;;6.00;;
16139;SDS011;8175;49.326;12.690;2023-02-28T04:33:25;7.80;;;5.47;;
16139;SDS011;8175;49.326;12.690;2023-02-28T04:36:00;6.30;;;4.90;;
16139;SDS011;8175;49.326;12.690;2023-02-28T04:38:37;6.47;;;5.07;;
16139;SDS011;8175;49.326;12.690;2023-02-28T04:41:03;10.30;;;5.60;;
16139;SDS011;8175;49.326;12.690;2023-02-28T04:43:30;7.30;;;5.40;;
16139;SDS011;8175;49.326;12.690;2023-02-28T04:45:56;7.47;;;5.80;;
16139;SDS011;8175;49.326;12.690;2023-02-28T04:48:23;6.70;;;5.10;;
16139;SDS011;8175;49.326;12.690;2023-02-28T04:50:50;6.83;;;5.47;;
16139;SDS011;8175;49.326;12.690;2023-02-28T04:53:17;5.40;;;4.70;;
16139;SDS011;8175;49.326;12.690;2023-02-28T04:55:43;8.20;;;5.60;;
16139;SDS011;8175;49.326;12.690;2023-02-28T04:58:09;6.83;;;5.37;;
16139;SDS011;8175;49.326;12.690;2023-02-28T05:00:35;8.40;;;5.43;;
16139;SDS011;8175;49.326;12.690;2023-02-28T05:03:00;6.93;;;5.13;;
16139;SDS011;8175;49.326;12.690;2023-02-28T05:05:26;7.30;;;5.30;;
16139;SDS011;8175;49.326;12.690;2023-02-28T05:07:52;7.83;;;4.90;;
16139;SDS011;8175;49.326;12.690;2023-02-28T05:10:20;6.50;;;5.20;;
16139;SDS011;8175;49.326;12.690;2023-02-28T05:12:47;6.93;;;4.87;;
16139;SDS011;8175;49.326;12.690;2023-02-28T05:15:13;7.80;;;5.73;;
16139;SDS011;8175;49.326;12.690;2023-02-28T05:17:40;6.87;;;5.53;;
16139;SDS011;8175;49.326;12.690;2023-02-28T05:20:07;6.57;;;5.83;;
16139;SDS011;8175;49.326;12.690;2023-02-28T05:22:35;7.63;;;5.40;;
16139;SDS011;8175;49.326;12.690;2023-02-28T05:25:02;6.60;;;5.67;;
16139;SDS011;8175;49.326;12.690;2023-02-28T05:27:29;6.97;;;5.93;;
16139;SDS011;8175;49.326;12.690;2023-02-28T05:29:56;9.20;;;5.83;;
16139;SDS011;8175;49.326;12.690;2023-02-28T05:32:22;10.53;;;6.40;;
16139;SDS011;8175;49.326;12.690;2023-02-28T05:34:47;8.57;;;5.67;;
16139;SDS011;8175;49.326;12.690;2023-02-28T05:37:13;7.60;;;5.33;;
16139;SDS011;8175;49.326;12.690;2023-02-28T05:39:40;8.37;;;6.23;;
16139;SDS011;8175;49.326;12.690;2023-02-28T05:42:06;9.60;;;6.50;;
16139;SDS011;8175;49.326;12.690;2023-02-28T05:44:32;8.00;;;6.80;;
16139;SDS011;8175;49.326;12.690;2023-02-28T05:46:58;9.53;;;6.40;;
16139;SDS011;8175;49.326;12.690;2023-02-28T05:49:24;10.63;;;6.83;;
16139;SDS011;8175;49.326;12.690;2023-02-28T05:51:50;8.50;;;5.93;;
16139;SDS011;8175;49.326;12.690;2023-02-28T05:54:15;9.80;;;6.80;;
16139;SDS011;8175;49.326;12.690;2023-02-28T05:56:41;8.27;;;7.23;;
16139;SDS011;8175;49.326;12.690;2023-02-28T05:59:10;11.30;;;7.80;;
16139;SDS011;8175;49.326;12.690;2023-02-28T06:01:40;10.13;;;7.17;;
16139;SDS011;8175;49.326;12.690;2023-02-28T06:04:12;10.60;;;6.93;;
16139;SDS011;8175;49.326;12.690;2023-02-28T06:06:43;8.60;;;6.00;;
16139;SDS011;8175;49.326;12.690;2023-02-28T06:09:09;9.43;;;6.80;;
16139;SDS011;8175;49.326;12.690;2023-02-28T06:11:35;9.43;;;6.93;;
16139;SDS011;8175;49.326;12.690;2023-02-28T06:14:01;9.17;;;6.60;;
16139;SDS011;8175;49.326;12.690;2023-02-28T06:16:27;9.27;;;6.93;;
16139;SDS011;8175;49.326;12.690;2023-02-28T06:18:54;7.87;;;6.13;;
16139;SDS011;8175;49.326;12.690;2023-02-28T06:21:21;8.93;;;6.63;;
16139;SDS011;8175;49.326;12.690;2023-02-28T06:23:47;8.40;;;6.73;;
16139;SDS011;8175;49.326;12.690;2023-02-28T06:26:13;9.10;;;6.97;;
16139;SDS011;8175;49.326;12.690;2023-02-28T06:28:38;7.77;;;6.40;;
16139;SDS011;8175;49.326;12.690;2023-02-28T06:31:12;11.80;;;6.63;;
16139;SDS011;8175;49.326;12.690;2023-02-28T06:33:38;7.77;;;6.00;;
16139;SDS011;8175;49.326;12.690;2023-02-28T06:36:05;9.10;;;6.60;;
16139;SDS011;8175;49.326;12.690;2023-02-28T06:38:32;7.00;;;6.17;;
16139;SDS011;8175;49.326;12.690;2023-02-28T06:40:58;6.80;;;6.00;;
16139;SDS011;8175;49.326;12.690;2023-02-28T06:43:25;7.70;;;5.77;;
16139;SDS011;8175;49.326;12.690;2023-02-28T06:45:58;9.93;;;6.70;;
16139;SDS011;8175;49.326;12.690;2023-02-28T06:48:26;7.43;;;5.93;;
16139;SDS011;8175;49.326;12.690;2023-02-28T06:51:00;8.20;;;6.03;;
16139;SDS011;8175;49.326;12.690;2023-02-28T06:53:28;7.10;;;5.27;;
16139;SDS011;8175;49.326;12.690;2023-02-28T06:55:54;9.20;;;6.27;;
16139;SDS011;8175;49.326;12.690;2023-02-28T06:58:20;9.40;;;6.10;;
16139;SDS011;8175;49.326;12.690;2023-02-28T07:00:49;8.67;;;6.50;;
16139;SDS011;8175;49.326;12.690;2023-02-28T07:03:16;5.90;;;5.10;;
16139;SDS011;8175;49.326;12.690;2023-02-28T07:05:43;7.03;;;5.40;;
16139;SDS011;8175;49.326;12.690;2023-02-28T07:08:09;8.80;;;5.37;;
16139;SDS011;8175;49.326;12.690;2023-02-28T07:10:36;7.70;;;5.43;;
16139;SDS011;8175;49.326;12.690;2023-02-28T07:13:03;8.17;;;4.93;;
16139;SDS011;8175;49.326;12.690;2023-02-28T07:15:29;7.97;;;5.70;;
16139;SDS011;8175;49.326;12.690;2023-02-28T07:17:55;6.43;;;5.20;;
16139;SDS011;8175;49.326;12.690;2023-02-28T07:20:21;6.50;;;5.13;;
16139;SDS011;8175;49.326;12.690;2023-02-28T07:22:48;8.30;;;5.73;;
16139;SDS011;8175;49.326;12.690;2023-02-28T07:25:20;13.40;;;5.70;;
16139;SDS011;8175;49.326;12.690;2023-02-28T07:27:46;7.60;;;5.43;;
16139;SDS011;8175;49.326;12.690;2023-02-28T07:30:12;6.30;;;5.63;;
16139;SDS011;8175;49.326;12.690;2023-02-28T07:32:38;6.60;;;5.73;;
16139;SDS011;8175;49.326;12.690;2023-02-28T07:35:04;6.77;;;5.77;;
16139;SDS011;8175;49.326;12.690;2023-02-28T07:37:30;8.90;;;6.30;;
16139;SDS011;8175;49.326;12.690;2023-02-28T07:40:02;8.87;;;6.53;;
16139;SDS011;8175;49.326;12.690;2023-02-28T07:42:31;10.87;;;5.80;;
16139;SDS011;8175;49.326;12.690;2023-02-28T07:44:57;8.17;;;5.83;;
16139;SDS011;8175;49.326;12.690;2023-02-28T07:47:24;7.43;;;5.43;;
16139;SDS011;8175;49.326;12.690;2023-02-28T07:49:49;8.20;;;5.70;;
16139;SDS011;8175;49.326;12.690;2023-02-28T07:52:15;8.63;;;6.10;;
16139;SDS011;8175;49.326;12.690;2023-02-28T07:54:41;6.90;;;5.10;;
16139;SDS011;8175;49.326;12.690;2023-02-28T07:57:06;7.27;;;6.27;;
16139;SDS011;8175;49.326;12.690;2023-02-28T07:59:32;9.00;;;6.10;;
16139;SDS011;8175;49.326;12.690;2023-02-28T08:01:57;7.70;;;6.00;;
16139;SDS011;8175;49.326;12.690;2023-02-28T08:04:25;7.47;;;5.73;;
16139;SDS011;8175;49.326;12.690;2023-02-28T08:06:51;8.70;;;6.33;;
16139;SDS011;8175;49.326;12.690;2023-02-28T08:09:18;5.80;;;4.87;;
16139;SDS011;8175;49.326;12.690;2023-02-28T08:11:44;7.53;;;6.27;;
16139;SDS011;8175;49.326;12.690;2023-02-28T08:14:09;10.87;;;6.70;;
16139;SDS011;8175;49.326;12.690;2023-02-28T08:16:35;8.23;;;6.60;;
16139;SDS011;8175;49.326;12.690;2023-02-28T08:19:01;8.93;;;6.30;;
16139;SDS011;8175;49.326;12.690;2023-02-28T08:21:26;9.00;;;6.37;;
16139;SDS011;8175;49.326;12.690;2023-02-28T08:23:52;9.60;;;7.00;;
16139;SDS011;8175;49.326;12.690;2023-02-28T08:26:18;8.17;;;7.17;;
16139;SDS011;8175;49.326;12.690;2023-02-28T08:28:44;7.10;;;6.00;;
16139;SDS011;8175;49.326;12.690;2023-02-28T08:31:11;8.77;;;6.53;;
16139;SDS011;8175;49.326;12.690;2023-02-28T08:33:38;7.70;;;5.90;;
16139;SDS011;8175;49.326;12.690;2023-02-28T08:36:06;8.47;;;6.87;;
16139;SDS011;8175;49.326;12.690;2023-02-28T08:38:32;9.60;;;6.57;;
16139;SDS011;8175;49.326;12.690;2023-02-28T08:40:59;9.07;;;6.13;;
16139;SDS011;8175;49.326;12.690;2023-02-28T08:43:27;8.73;;;5.87;;
16139;SDS011;8175;49.326;12.690;2023-02-28T08:45:53;8.83;;;6.63;;
16139;SDS011;8175;49.326;12.690;2023-02-28T08:48:23;9.40;;;6.93;;
16139;SDS011;8175;49.326;12.690;2023-02-28T08:51:04;10.87;;;6.93;;
16139;SDS011;8175;49.326;12.690;2023-02-28T08:53:36;8.73;;;6.43;;
16139;SDS011;8175;49.326;12.690;2023-02-28T08:56:04;7.20;;;6.33;;
16139;SDS011;8175;49.326;12.690;2023-02-28T08:58:34;9.40;;;6.20;;
16139;SDS011;8175;49.326;12.690;2023-02-28T09:01:00;7.97;;;7.07;;
16139;SDS011;8175;49.326;12.690;2023-02-28T09:03:32;7.57;;;6.20;;
16139;SDS011;8175;49.326;12.690;2023-02-28T09:05:58;8.90;;;6.43;;
16139;SDS011;8175;49.326;12.690;2023-02-28T09:08:26;7.67;;;5.73;;
16139;SDS011;8175;49.326;12.690;2023-02-28T09:10:53;7.97;;;6.07;;
16139;SDS011;8175;49.326;12.690;2023-02-28T09:13:21;7.67;;;6.20;;
16139;SDS011;8175;49.326;12.690;2023-02-28T09:15:47;9.17;;;6.70;;
16139;SDS011;8175;49.326;12.690;2023-02-28T09:18:13;7.23;;;6.03;;
16139;SDS011;8175;49.326;12.690;2023-02-28T09:20:39;10.17;;;5.80;;
16139;SDS011;8175;49.326;12.690;2023-02-28T09:23:06;5.80;;;5.20;;
16139;SDS011;8175;49.326;12.690;2023-02-28T09:25:33;6.40;;;5.80;;
16139;SDS011;8175;49.326;12.690;2023-02-28T09:27:59;8.33;;;5.70;;
16139;SDS011;8175;49.326;12.690;2023-02-28T09:30:25;8.20;;;6.23;;
16139;SDS011;8175;49.326;12.690;2023-02-28T09:32:51;8.43;;;6.33;;
16139;SDS011;8175;49.326;12.690;2023-02-28T09:35:18;7.73;;;6.30;;
16139;SDS011;8175;49.326;12.690;2023-02-28T09:37:46;7.40;;;5.80;;
16139;SDS011;8175;49.326;12.690;2023-02-28T09:40:13;8.20;;;5.03;;
16139;SDS011;8175;49.326;12.690;2023-02-28T09:42:42;7.43;;;5.67;;
16139;SDS011;8175;49.326;12.690;2023-02-28T09:45:18;7.63;;;5.40;;
16139;SDS011;8175;49.326;12.690;2023-02-28T09:47:48;6.37;;;5.20;;
16139;SDS011;8175;49.326;12.690;2023-02-28T09:52:57;7.20;;;5.57;;
16139;SDS011;8175;49.326;12.690;2023-02-28T09:55:40;7.23;;;5.70;;
16139;SDS011;8175;49.326;12.690;2023-02-28T10:00:56;7.40;;;6.00;;
16139;SDS011;8175;49.326;12.690;2023-02-28T10:03:32;9.33;;;6.23;;
16139;SDS011;8175;49.326;12.690;2023-02-28T10:08:40;7.07;;;5.67;;
16139;SDS011;8175;49.326;12.690;2023-02-28T10:11:15;6.30;;;5.13;;
16139;SDS011;8175;49.326;12.690;2023-02-28T10:16:39;9.07;;;6.00;;
16139;SDS011;8175;49.326;12.690;2023-02-28T10:21:59;7.13;;;5.87;;
16139;SDS011;8175;49.326;12.690;2023-02-28T10:24:39;8.17;;;5.80;;
16139;SDS011;8175;49.326;12.690;2023-02-28T10:27:14;7.20;;;5.20;;
16139;SDS011;8175;49.326;12.690;2023-02-28T10:29:46;6.67;;;5.70;;
16139;SDS011;8175;49.326;12.690;2023-02-28T10:32:18;6.73;;;5.30;;
16139;SDS011;8175;49.326;12.690;2023-02-28T10:37:32;7.17;;;5.70;;
16139;SDS011;8175;49.326;12.690;2023-02-28T10:40:03;7.67;;;5.97;;
16139;SDS011;8175;49.326;12.690;2023-02-28T10:42:55;7.07;;;5.40;;
16139;SDS011;8175;49.326;12.690;2023-02-28T10:45:53;7.03;;;5.97;;
16139;SDS011;8175;49.326;12.690;2023-02-28T10:50:50;7.00;;;6.03;;
16139;SDS011;8175;49.326;12.690;2023-02-28T11:01:20;6.60;;;5.33;;
16139;SDS011;8175;49.326;12.690;2023-02-28T11:03:47;6.77;;;5.50;;
16139;SDS011;8175;49.326;12.690;2023-02-28T11:06:23;7.07;;;6.00;;
16139;SDS011;8175;49.326;12.690;2023-02-28T11:11:26;7.43;;;6.43;;
16139;SDS011;8175;49.326;12.690;2023-02-28T11:13:57;6.07;;;4.87;;
16139;SDS011;8175;49.326;12.690;2023-02-28T11:16:35;6.23;;;5.10;;
16139;SDS011;8175;49.326;12.690;2023-02-28T11:19:03;7.23;;;5.17;;
16139;SDS011;8175;49.326;12.690;2023-02-28T11:21:33;6.03;;;5.17;;
16139;SDS011;8175;49.326;12.690;2023-02-28T11:26:56;6.23;;;5.63;;
16139;SDS011;8175;49.326;12.690;2023-02-28T11:29:32;7.20;;;6.13;;
16139;SDS011;8175;49.326;12.690;2023-02-28T11:34:45;7.97;;;6.00;;
16139;SDS011;8175;49.326;12.690;2023-02-28T11:37:13;7.97;;;5.53;;
16139;SDS011;8175;49.326;12.690;2023-02-28T11:39:41;7.27;;;5.80;;
16139;SDS011;8175;49.326;12.690;2023-02-28T11:50:30;6.63;;;5.80;;
16139;SDS011;8175;49.326;12.690;2023-02-28T11:55:49;6.60;;;5.90;;
16139;SDS011;8175;49.326;12.690;2023-02-28T12:01:15;6.27;;;5.67;;
16139;SDS011;8175;49.326;12.690;2023-02-28T12:28:12;7.03;;;5.87;;
16139;SDS011;8175;49.326;12.690;2023-02-28T12:33:31;5.70;;;4.87;;
16139;SDS011;8175;49.326;12.690;2023-02-28T12:36:00;6.27;;;5.67;;
16139;SDS011;8175;49.326;12.690;2023-02-28T12:38:44;9.23;;;5.93;;
16139;SDS011;8175;49.326;12.690;2023-02-28T12:41:18;6.97;;;6.03;;
16139;SDS011;8175;49.326;12.690;2023-02-28T12:44:00;6.90;;;5.83;;
16139;SDS011;8175;49.326;12.690;2023-02-28T12:46:34;7.77;;;6.33;;
16139;SDS011;8175;49.326;12.690;2023-02-28T12:49:24;8.80;;;6.00;;
16139;SDS011;8175;49.326;12.690;2023-02-28T12:51:56;7.67;;;5.90;;
16139;SDS011;8175;49.326;12.690;2023-02-28T12:54:39;8.67;;;5.53;;
16139;SDS011;8175;49.326;12.690;2023-02-28T12:57:31;8.30;;;5.70;;
16139;SDS011;8175;49.326;12.690;2023-02-28T12:59:59;6.73;;;5.60;;
16139;SDS011;8175;49.326;12.690;2023-02-28T13:08:33;7.67;;;5.53;;
16139;SDS011;8175;49.326;12.690;2023-02-28T13:11:40;5.67;;;5.10;;
16139;SDS011;8175;49.326;12.690;2023-02-28T13:16:59;6.87;;;5.30;;
16139;SDS011;8175;49.326;12.690;2023-02-28T13:19:27;7.07;;;5.67;;
16139;SDS011;8175;49.326;12.690;2023-02-28T13:21:55;6.27;;;5.00;;
16139;SDS011;8175;49.326;12.690;2023-02-28T13:24:45;6.30;;;5.50;;
16139;SDS011;8175;49.326;12.690;2023-02-28T13:27:19;7.20;;;6.07;;
16139;SDS011;8175;49.326;12.690;2023-02-28T13:29:51;7.70;;;6.03;;
16139;SDS011;8175;49.326;12.690;2023-02-28T13:32:33;8.87;;;5.43;;
16139;SDS011;8175;49.326;12.690;2023-02-28T13:37:32;7.37;;;6.07;;
16139;SDS011;8175;49.326;12.690;2023-02-28T13:47:42;7.20;;;5.70;;
16139;SDS011;8175;49.326;12.690;2023-02-28T13:58:37;7.17;;;5.93;;
16139;SDS011;8175;49.326;12.690;2023-02-28T14:01:22;8.50;;;5.80;;
16139;SDS011;8175;49.326;12.690;2023-02-28T14:06:34;9.20;;;6.97;;
16139;SDS011;8175;49.326;12.690;2023-02-28T14:09:03;7.17;;;5.60;;
16139;SDS011;8175;49.326;12.690;2023-02-28T14:11:42;8.13;;;6.10;;
16139;SDS011;8175;49.326;12.690;2023-02-28T14:14:10;8.13;;;5.90;;
16139;SDS011;8175;49.326;12.690;2023-02-28T14:17:03;6.50;;;5.60;;
16139;SDS011;8175;49.326;12.690;2023-02-28T14:19:37;7.37;;;5.90;;
16139;SDS011;8175;49.326;12.690;2023-02-28T14:22:08;10.50;;;7.70;;
16139;SDS011;8175;49.326;12.690;2023-02-28T14:30:29;8.73;;;6.33;;
16139;SDS011;8175;49.326;12.690;2023-02-28T14:38:47;8.00;;;6.57;;
16139;SDS011;8175;49.326;12.690;2023-02-28T14:41:30;9.57;;;7.10;;
16139;SDS011;8175;49.326;12.690;2023-02-28T14:44:00;9.13;;;7.30;;
16139;SDS011;8175;49.326;12.690;2023-02-28T14:46:30;9.10;;;6.60;;
16139;SDS011;8175;49.326;12.690;2023-02-28T14:49:03;9.20;;;6.93;;
16139;SDS011;8175;49.326;12.690;2023-02-28T14:51:30;10.07;;;6.90;;
16139;SDS011;8175;49.326;12.690;2023-02-28T14:53:57;11.57;;;7.97;;
16139;SDS011;8175;49.326;12.690;2023-02-28T14:56:28;8.77;;;6.80;;
16139;SDS011;8175;49.326;12.690;2023-02-28T14:59:05;9.67;;;7.47;;
16139;SDS011;8175;49.326;12.690;2023-02-28T15:01:47;10.77;;;7.43;;
16139;SDS011;8175;49.326;12.690;2023-02-28T15:04:18;11.43;;;6.97;;
16139;SDS011;8175;49.326;12.690;2023-02-28T15:07:09;10.13;;;7.63;;
16139;SDS011;8175;49.326;12.690;2023-02-28T15:09:35;9.17;;;7.53;;
16139;SDS011;8175;49.326;12.690;2023-02-28T15:12:01;9.00;;;7.67;;
16139;SDS011;8175;49.326;12.690;2023-02-28T15:14:27;8.77;;;7.83;;
16139;SDS011;8175;49.326;12.690;2023-02-28T15:17:01;10.90;;;8.20;;
16139;SDS011;8175;49.326;12.690;2023-02-28T15:19:31;12.40;;;9.23;;
16139;SDS011;8175;49.326;12.690;2023-02-28T15:22:01;11.77;;;9.13;;
16139;SDS011;8175;49.326;12.690;2023-02-28T15:27:09;13.90;;;8.53;;
16139;SDS011;8175;49.326;12.690;2023-02-28T15:29:44;11.40;;;8.90;;
16139;SDS011;8175;49.326;12.690;2023-02-28T15:32:24;10.23;;;8.40;;
16139;SDS011;8175;49.326;12.690;2023-02-28T15:34:54;13.03;;;9.90;;
16139;SDS011;8175;49.326;12.690;2023-02-28T15:40:17;12.57;;;9.53;;
16139;SDS011;8175;49.326;12.690;2023-02-28T15:43:05;9.10;;;7.90;;
16139;SDS011;8175;49.326;12.690;2023-02-28T15:45:49;15.87;;;10.03;;
16139;SDS011;8175;49.326;12.690;2023-02-28T15:48:24;11.80;;;8.73;;
16139;SDS011;8175;49.326;12.690;2023-02-28T15:50:56;10.70;;;9.03;;
16139;SDS011;8175;49.326;12.690;2023-02-28T15:53:51;14.10;;;9.33;;
16139;SDS011;8175;49.326;12.690;2023-02-28T15:56:23;13.20;;;9.30;;
16139;SDS011;8175;49.326;12.690;2023-02-28T15:59:00;13.80;;;9.97;;
16139;SDS011;8175;49.326;12.690;2023-02-28T16:01:29;16.20;;;10.00;;
16139;SDS011;8175;49.326;12.690;2023-02-28T16:04:00;15.93;;;10.20;;
16139;SDS011;8175;49.326;12.690;2023-02-28T16:09:02;14.63;;;10.23;;
16139;SDS011;8175;49.326;12.690;2023-02-28T16:11:29;14.97;;;9.30;;
16139;SDS011;8175;49.326;12.690;2023-02-28T16:13:57;13.00;;;9.97;;
16139;SDS011;8175;49.326;12.690;2023-02-28T16:16:23;13.67;;;10.63;;
16139;SDS011;8175;49.326;12.690;2023-02-28T16:18:50;13.30;;;10.93;;
16139;SDS011;8175;49.326;12.690;2023-02-28T16:21:16;15.33;;;10.50;;
16139;SDS011;8175;49.326;12.690;2023-02-28T16:23:42;14.13;;;10.30;;
16139;SDS011;8175;49.326;12.690;2023-02-28T16:26:09;15.27;;;11.40;;
16139;SDS011;8175;49.326;12.690;2023-02-28T16:28:44;14.43;;;9.83;;
16139;SDS011;8175;49.326;12.690;2023-02-28T16:31:10;14.93;;;10.83;;
16139;SDS011;8175;49.326;12.690;2023-02-28T16:33:41;11.73;;;9.40;;
16139;SDS011;8175;49.326;12.690;2023-02-28T16:36:18;13.13;;;10.30;;
16139;SDS011;8175;49.326;12.690;2023-02-28T16:38:50;14.10;;;10.33;;
16139;SDS011;8175;49.326;12.690;2023-02-28T16:41:19;16.03;;;11.60;;
16139;SDS011;8175;49.326;12.690;2023-02-28T16:43:47;14.13;;;10.57;;
16139;SDS011;8175;49.326;12.690;2023-02-28T16:46:15;17.13;;;11.30;;
16139;SDS011;8175;49.326;12.690;2023-02-28T16:48:41;16.30;;;11.27;;
16139;SDS011;8175;49.326;12.690;2023-02-28T16:51:11;16.57;;;11.37;;
16139;SDS011;8175;49.326;12.690;2023-02-28T16:53:37;14.70;;;10.80;;
16139;SDS011;8175;49.326;12.690;2023-02-28T16:56:03;17.00;;;12.33;;
16139;SDS011;8175;49.326;12.690;2023-02-28T16:58:31;16.07;;;11.10;;
16139;SDS011;8175;49.326;12.690;2023-02-28T17:01:00;15.20;;;11.30;;
16139;SDS011;8175;49.326;12.690;2023-02-28T17:03:27;16.40;;;12.10;;
16139;SDS011;8175;49.326;12.690;2023-02-28T17:05:53;17.83;;;12.10;;
16139;SDS011;8175;49.326;12.690;2023-02-28T17:08:19;18.33;;;11.93;;
16139;SDS011;8175;49.326;12.690;2023-02-28T17:10:45;17.87;;;11.27;;
16139;SDS011;8175;49.326;12.690;2023-02-28T17:13:11;14.63;;;11.23;;
16139;SDS011;8175;49.326;12.690;2023-02-28T17:15:37;19.53;;;12.33;;
16139;SDS011;8175;49.326;12.690;2023-02-28T17:18:03;17.83;;;12.07;;
16139;SDS011;8175;49.326;12.690;2023-02-28T17:20:30;15.87;;;11.60;;
16139;SDS011;8175;49.326;12.690;2023-02-28T17:22:55;17.10;;;12.03;;
16139;SDS011;8175;49.326;12.690;2023-02-28T17:25:21;24.67;;;12.77;;
16139;SDS011;8175;49.326;12.690;2023-02-28T17:27:49;18.03;;;11.30;;
16139;SDS011;8175;49.326;12.690;2023-02-28T17:30:19;18.03;;;11.70;;
16139;SDS011;8175;49.326;12.690;2023-02-28T17:32:46;16.07;;;11.07;;
16139;SDS011;8175;49.326;12.690;2023-02-28T17:35:12;17.77;;;13.00;;
16139;SDS011;8175;49.326;12.690;2023-02-28T17:37:38;17.53;;;12.33;;
16139;SDS011;8175;49.326;12.690;2023-02-28T17:40:04;19.27;;;12.53;;
16139;SDS011;8175;49.326;12.690;2023-02-28T17:42:30;23.27;;;12.07;;
16139;SDS011;8175;49.326;12.690;2023-02-28T17:44:56;16.67;;;11.60;;